Time;durP1;ratioP1;P1;durP2;ratioP2;P2;SDS_P1;SDS_P2;PMS_P1;PMS_P2;Temp;Humidity;BMP_temperature;BMP_pressure;BME280_temperature;BME280_humidity;BME280_pressure;Samples;Min_cycle;Max_cycle;Signal;HPM_P1;HPM_P2
2021/10/30 00:01:17;;;;;;;20.33;5.80;;;;;;;;;;5071838;28;20029;-60
2021/10/30 00:03:45;;;;;;;26.83;4.90;;;;;;;;;;5073134;28;20032;-61
2021/10/30 00:06:12;;;;;;;22.60;5.30;;;;;;;;;;5071776;28;20028;-61
2021/10/30 00:08:40;;;;;;;23.08;5.03;;;;;;;;;;5072611;28;20473;-61
2021/10/30 00:11:07;;;;;;;26.50;4.78;;;;;;;;;;5052305;28;20047;-60
2021/10/30 00:13:35;;;;;;;30.73;6.25;;;;;;;;;;5061924;28;20016;-59
2021/10/30 00:16:03;;;;;;;29.42;6.50;;;;;;;;;;5071667;28;20077;-60
2021/10/30 00:18:30;;;;;;;28.27;6.05;;;;;;;;;;5073882;28;20041;-60
2021/10/30 00:20:58;;;;;;;24.77;5.93;;;;;;;;;;5058906;28;20081;-60
2021/10/30 00:23:26;;;;;;;18.83;5.55;;;;;;;;;;5073481;28;20502;-60
2021/10/30 00:25:53;;;;;;;28.88;6.03;;;;;;;;;;5072303;28;20567;-60
2021/10/30 00:28:20;;;;;;;27.48;5.72;;;;;;;;;;5073727;28;20020;-60
2021/10/30 00:30:48;;;;;;;26.42;5.72;;;;;;;;;;5073134;28;20095;-60
2021/10/30 00:33:15;;;;;;;24.75;5.80;;;;;;;;;;5071618;28;20078;-60
2021/10/30 00:35:43;;;;;;;24.13;5.60;;;;;;;;;;5073202;28;20056;-60
2021/10/30 00:38:11;;;;;;;27.60;5.60;;;;;;;;;;5068665;28;20047;-60
2021/10/30 00:40:39;;;;;;;26.23;5.82;;;;;;;;;;5072026;28;20024;-61
2021/10/30 00:43:06;;;;;;;23.40;4.82;;;;;;;;;;5071996;28;20491;-60
2021/10/30 00:45:34;;;;;;;26.27;4.90;;;;;;;;;;5052712;28;20021;-53
2021/10/30 00:48:02;;;;;;;36.78;5.65;;;;;;;;;;5070874;28;20028;-53
2021/10/30 00:50:30;;;;;;;39.97;4.38;;;;;;;;;;5063955;28;20138;-58
2021/10/30 00:52:59;;;;;;;28.58;4.10;;;;;;;;;;5070430;28;20029;-57
2021/10/30 00:55:27;;;;;;;39.35;5.47;;;;;;;;;;5069802;28;20032;-54
2021/10/30 00:57:57;;;;;;;41.15;4.90;;;;;;;;;;5069443;28;20416;-51
2021/10/30 01:00:27;;;;;;;51.45;5.22;;;;;;;;;;5071331;28;20029;-52
2021/10/30 01:02:57;;;;;;;33.92;4.82;;;;;;;;;;5073533;28;20074;-55
2021/10/30 01:05:26;;;;;;;32.80;4.55;;;;;;;;;;5068057;28;20028;-54
2021/10/30 01:07:54;;;;;;;33.55;3.95;;;;;;;;;;5066786;28;20093;-52
2021/10/30 01:10:22;;;;;;;37.95;4.70;;;;;;;;;;5054915;28;20032;-56
2021/10/30 01:12:52;;;;;;;28.92;3.70;;;;;;;;;;5053381;28;20018;-52
2021/10/30 01:15:19;;;;;;;23.48;3.30;;;;;;;;;;5067874;28;20021;-48
2021/10/30 01:17:46;;;;;;;32.90;4.93;;;;;;;;;;5067904;28;20069;-52
2021/10/30 01:20:19;;;;;;;31.30;3.95;;;;;;;;;;5070326;28;20036;-59
2021/10/30 01:22:47;;;;;;;28.42;3.85;;;;;;;;;;5055309;28;20029;-49
2021/10/30 01:25:14;;;;;;;28.75;4.20;;;;;;;;;;5070130;28;20036;-51
2021/10/30 01:27:44;;;;;;;31.70;4.03;;;;;;;;;;5071276;28;20243;-52
2021/10/30 01:30:15;;;;;;;28.17;4.28;;;;;;;;;;5074397;28;20058;-52
2021/10/30 01:32:42;;;;;;;16.88;3.70;;;;;;;;;;5088091;28;20028;-51
2021/10/30 01:35:09;;;;;;;26.98;3.97;;;;;;;;;;5059515;28;20029;-53
2021/10/30 01:37:36;;;;;;;35.67;4.22;;;;;;;;;;5073313;28;20024;-53
2021/10/30 01:40:03;;;;;;;34.92;5.10;;;;;;;;;;5072962;28;20107;-53
2021/10/30 01:42:30;;;;;;;45.35;4.68;;;;;;;;;;5073481;28;20112;-52
2021/10/30 01:44:57;;;;;;;35.97;4.43;;;;;;;;;;5076844;28;20075;-52
2021/10/30 01:47:24;;;;;;;35.75;4.50;;;;;;;;;;5071783;28;20029;-53
2021/10/30 01:49:51;;;;;;;37.05;3.95;;;;;;;;;;5069929;28;20024;-50
2021/10/30 01:52:18;;;;;;;20.15;3.42;;;;;;;;;;5070111;28;20027;-50
2021/10/30 01:54:45;;;;;;;32.53;4.15;;;;;;;;;;5073211;28;20023;-47
2021/10/30 01:57:12;;;;;;;26.00;3.30;;;;;;;;;;5067798;28;20476;-49
2021/10/30 01:59:39;;;;;;;29.35;3.88;;;;;;;;;;5052797;28;20024;-49
2021/10/30 02:02:06;;;;;;;30.48;3.85;;;;;;;;;;5053329;28;20043;-48
2021/10/30 02:04:33;;;;;;;25.20;3.63;;;;;;;;;;5068981;28;20020;-53
2021/10/30 02:07:01;;;;;;;29.30;4.13;;;;;;;;;;5069020;28;20031;-48
2021/10/30 02:09:27;;;;;;;32.17;4.30;;;;;;;;;;5054593;28;20388;-50
2021/10/30 02:11:55;;;;;;;18.48;3.60;;;;;;;;;;5049742;28;20074;-50
2021/10/30 02:14:22;;;;;;;35.67;4.95;;;;;;;;;;5067941;28;20052;-54
2021/10/30 02:16:49;;;;;;;33.17;4.07;;;;;;;;;;5068702;28;20042;-50
2021/10/30 02:19:16;;;;;;;29.27;4.18;;;;;;;;;;5068720;28;20068;-55
2021/10/30 02:21:43;;;;;;;32.10;4.53;;;;;;;;;;5070981;28;20037;-47
2021/10/30 02:24:10;;;;;;;41.72;4.53;;;;;;;;;;5068367;28;20387;-47
2021/10/30 02:26:37;;;;;;;34.45;4.68;;;;;;;;;;5065246;28;20044;-51
2021/10/30 02:29:06;;;;;;;29.25;4.80;;;;;;;;;;5068871;28;20032;-49
2021/10/30 02:31:34;;;;;;;27.52;4.10;;;;;;;;;;5070262;28;20036;-56
2021/10/30 02:34:01;;;;;;;27.25;3.97;;;;;;;;;;5067917;28;20427;-57
2021/10/30 02:36:29;;;;;;;23.88;4.00;;;;;;;;;;5069579;28;20105;-49
2021/10/30 02:38:56;;;;;;;25.30;4.03;;;;;;;;;;5068176;28;20017;-49
2021/10/30 02:41:24;;;;;;;26.80;3.97;;;;;;;;;;5072208;28;20036;-56
2021/10/30 02:43:52;;;;;;;27.05;3.40;;;;;;;;;;5070409;28;20077;-57
2021/10/30 02:46:20;;;;;;;31.65;3.78;;;;;;;;;;5074864;28;20032;-58
2021/10/30 02:48:47;;;;;;;40.40;4.10;;;;;;;;;;5067446;28;20050;-54
2021/10/30 02:51:15;;;;;;;39.85;4.55;;;;;;;;;;5069148;28;20104;-51
2021/10/30 02:53:43;;;;;;;39.05;4.30;;;;;;;;;;5072233;28;20025;-54
2021/10/30 02:56:11;;;;;;;26.92;3.60;;;;;;;;;;5071984;28;20020;-49
2021/10/30 02:58:39;;;;;;;22.67;3.10;;;;;;;;;;5076084;28;20087;-52
2021/10/30 03:01:07;;;;;;;22.48;3.00;;;;;;;;;;5077109;28;20115;-50
2021/10/30 03:03:39;;;;;;;24.83;3.35;;;;;;;;;;5056450;28;20143;-53
2021/10/30 03:06:07;;;;;;;28.83;3.92;;;;;;;;;;5071905;28;20025;-54
2021/10/30 03:08:36;;;;;;;35.85;4.25;;;;;;;;;;5068492;28;20016;-51
2021/10/30 03:11:04;;;;;;;23.30;3.95;;;;;;;;;;5069486;28;20428;-47
2021/10/30 03:13:32;;;;;;;28.65;3.30;;;;;;;;;;5055882;28;20119;-52
2021/10/30 03:16:00;;;;;;;21.75;3.10;;;;;;;;;;5072731;28;20020;-51
2021/10/30 03:18:28;;;;;;;20.63;4.18;;;;;;;;;;5069149;28;20037;-52
2021/10/30 03:20:56;;;;;;;20.80;2.63;;;;;;;;;;5070714;28;20102;-54
2021/10/30 03:23:24;;;;;;;21.85;2.78;;;;;;;;;;5069905;28;20037;-54
2021/10/30 03:25:51;;;;;;;23.25;2.90;;;;;;;;;;5069867;28;20031;-53
2021/10/30 03:28:18;;;;;;;17.60;2.88;;;;;;;;;;5068170;28;20063;-56
2021/10/30 03:30:46;;;;;;;24.83;3.00;;;;;;;;;;5069754;28;20021;-53
2021/10/30 03:33:14;;;;;;;19.17;3.55;;;;;;;;;;5069048;28;20017;-57
2021/10/30 03:35:43;;;;;;;37.22;3.55;;;;;;;;;;5067811;28;20063;-58
2021/10/30 03:38:12;;;;;;;28.23;3.05;;;;;;;;;;5072842;28;20012;-53
2021/10/30 03:40:40;;;;;;;30.42;3.70;;;;;;;;;;5071192;28;20044;-54
2021/10/30 03:43:07;;;;;;;24.95;2.90;;;;;;;;;;5071499;28;20045;-58
2021/10/30 03:45:35;;;;;;;17.95;2.58;;;;;;;;;;5071489;28;20027;-52
2021/10/30 03:48:04;;;;;;;25.05;2.95;;;;;;;;;;5068936;28;20518;-47
2021/10/30 03:50:32;;;;;;;22.48;2.90;;;;;;;;;;5071537;28;20044;-60
2021/10/30 03:53:01;;;;;;;28.92;3.50;;;;;;;;;;5073007;28;20029;-56
2021/10/30 03:55:28;;;;;;;22.48;3.53;;;;;;;;;;5074921;28;20024;-52
2021/10/30 03:57:55;;;;;;;27.92;2.90;;;;;;;;;;5071543;28;20021;-53
2021/10/30 04:00:22;;;;;;;28.10;3.97;;;;;;;;;;5074376;28;20028;-54
2021/10/30 04:02:50;;;;;;;30.17;2.97;;;;;;;;;;5073666;28;20063;-54
2021/10/30 04:05:17;;;;;;;16.95;2.05;;;;;;;;;;5094137;28;20020;-56
2021/10/30 04:07:44;;;;;;;23.02;2.42;;;;;;;;;;5093709;28;20399;-54
2021/10/30 04:10:11;;;;;;;17.00;2.50;;;;;;;;;;5093887;28;20076;-55
2021/10/30 04:12:39;;;;;;;108.22;7.65;;;;;;;;;;5081817;28;20044;-54
2021/10/30 04:15:06;;;;;;;110.65;7.72;;;;;;;;;;5074005;28;20025;-55
2021/10/30 04:17:33;;;;;;;52.80;4.97;;;;;;;;;;5074123;28;20039;-53
2021/10/30 04:20:00;;;;;;;51.67;4.97;;;;;;;;;;5074190;28;20045;-49
2021/10/30 04:22:27;;;;;;;45.67;4.05;;;;;;;;;;5074049;28;20506;-50
2021/10/30 04:24:54;;;;;;;35.25;3.75;;;;;;;;;;5074383;28;20078;-54
2021/10/30 04:27:22;;;;;;;123.60;7.93;;;;;;;;;;5073377;28;20032;-58
2021/10/30 04:29:49;;;;;;;188.32;11.95;;;;;;;;;;5056253;28;20388;-53
2021/10/30 04:32:17;;;;;;;125.10;8.35;;;;;;;;;;5073412;28;20106;-53
2021/10/30 04:34:49;;;;;;;58.53;5.60;;;;;;;;;;5074205;28;20041;-58
2021/10/30 04:37:16;;;;;;;45.22;3.95;;;;;;;;;;5073406;28;20109;-56
2021/10/30 04:39:45;;;;;;;29.77;3.05;;;;;;;;;;5074220;28;20375;-54
2021/10/30 04:42:12;;;;;;;33.78;3.05;;;;;;;;;;5073104;28;20029;-53
2021/10/30 04:44:39;;;;;;;32.35;3.97;;;;;;;;;;5074251;28;20021;-57
2021/10/30 04:47:06;;;;;;;27.98;2.72;;;;;;;;;;5073354;28;20024;-52
2021/10/30 04:49:35;;;;;;;24.50;2.35;;;;;;;;;;5073857;28;20534;-53
2021/10/30 04:52:02;;;;;;;21.35;2.15;;;;;;;;;;5073401;28;20060;-55
2021/10/30 04:54:29;;;;;;;12.80;2.38;;;;;;;;;;5073985;28;20074;-51
2021/10/30 04:56:56;;;;;;;13.77;2.08;;;;;;;;;;5073171;28;20380;-56
2021/10/30 04:59:23;;;;;;;14.52;2.00;;;;;;;;;;5073083;28;20020;-55
2021/10/30 05:01:50;;;;;;;16.38;1.98;;;;;;;;;;5073294;28;20029;-57
2021/10/30 05:04:17;;;;;;;22.80;2.35;;;;;;;;;;5073097;28;20070;-55
2021/10/30 05:06:44;;;;;;;21.63;2.88;;;;;;;;;;5073570;28;20052;-51
2021/10/30 05:09:11;;;;;;;20.38;2.45;;;;;;;;;;5054411;28;20060;-51
2021/10/30 05:11:38;;;;;;;24.60;2.50;;;;;;;;;;5073052;28;20025;-49
2021/10/30 05:14:05;;;;;;;22.70;2.00;;;;;;;;;;5072855;28;20078;-56
2021/10/30 05:16:32;;;;;;;16.55;1.73;;;;;;;;;;5073344;28;20104;-59
2021/10/30 05:19:00;;;;;;;27.83;2.90;;;;;;;;;;5072544;28;20098;-49
2021/10/30 05:21:27;;;;;;;64.78;4.60;;;;;;;;;;5072963;28;20098;-55
2021/10/30 05:23:57;;;;;;;66.85;4.90;;;;;;;;;;5073368;28;20455;-53
2021/10/30 05:26:27;;;;;;;212.13;13.68;;;;;;;;;;5072822;28;20036;-54
2021/10/30 05:28:54;;;;;;;103.32;7.07;;;;;;;;;;5073046;28;20028;-53
2021/10/30 05:31:22;;;;;;;73.82;4.40;;;;;;;;;;5072453;28;20024;-50
2021/10/30 05:33:49;;;;;;;37.67;2.58;;;;;;;;;;5072915;28;20055;-52
2021/10/30 05:36:19;;;;;;;41.88;2.90;;;;;;;;;;5072434;28;20017;-54
2021/10/30 05:38:50;;;;;;;46.90;2.33;;;;;;;;;;5072596;28;20372;-50
2021/10/30 05:41:18;;;;;;;83.88;4.90;;;;;;;;;;5072409;28;20376;-50
2021/10/30 05:43:46;;;;;;;42.60;2.83;;;;;;;;;;5072624;28;20025;-49
2021/10/30 05:46:13;;;;;;;18.08;2.60;;;;;;;;;;5072358;28;20025;-51
2021/10/30 05:48:40;;;;;;;11.07;1.95;;;;;;;;;;5072618;28;20435;-49
2021/10/30 05:51:07;;;;;;;10.48;2.45;;;;;;;;;;5072168;28;20019;-50
2021/10/30 05:53:34;;;;;;;12.77;2.55;;;;;;;;;;5072345;28;20043;-52
2021/10/30 05:56:01;;;;;;;9.73;1.77;;;;;;;;;;5071877;28;20074;-50
2021/10/30 05:58:28;;;;;;;4.90;1.30;;;;;;;;;;5072392;28;20024;-50
2021/10/30 06:00:55;;;;;;;7.97;1.73;;;;;;;;;;5071804;28;20020;-51
2021/10/30 06:03:22;;;;;;;6.28;1.58;;;;;;;;;;5054479;28;20831;-51
2021/10/30 06:05:49;;;;;;;5.28;1.30;;;;;;;;;;5071894;28;20039;-53
2021/10/30 06:08:16;;;;;;;10.38;1.60;;;;;;;;;;5072222;28;20021;-49
2021/10/30 06:10:43;;;;;;;3.78;1.58;;;;;;;;;;5072384;28;20025;-49
2021/10/30 06:13:10;;;;;;;6.90;1.77;;;;;;;;;;5071666;28;20428;-50
2021/10/30 06:15:37;;;;;;;5.93;1.52;;;;;;;;;;5072403;28;20029;-52
2021/10/30 06:18:04;;;;;;;5.72;1.50;;;;;;;;;;5052872;28;20048;-52
2021/10/30 06:20:31;;;;;;;6.82;1.77;;;;;;;;;;5072219;28;20025;-50
2021/10/30 06:22:58;;;;;;;5.10;1.60;;;;;;;;;;5071490;28;20029;-54
2021/10/30 06:25:25;;;;;;;3.72;1.23;;;;;;;;;;5072203;28;20039;-54
2021/10/30 06:27:52;;;;;;;5.53;1.25;;;;;;;;;;5071369;28;20024;-53
2021/10/30 06:30:19;;;;;;;4.22;1.20;;;;;;;;;;5072165;28;20017;-56
2021/10/30 06:32:46;;;;;;;1.88;1.20;;;;;;;;;;5071600;28;20154;-51
2021/10/30 06:35:13;;;;;;;4.10;1.17;;;;;;;;;;5071763;28;20328;-48
2021/10/30 06:37:40;;;;;;;2.85;1.30;;;;;;;;;;5071130;28;20093;-52
2021/10/30 06:40:09;;;;;;;5.35;1.23;;;;;;;;;;5054258;28;20013;-53
2021/10/30 06:42:36;;;;;;;3.33;1.10;;;;;;;;;;5071222;28;20036;-52
2021/10/30 06:45:03;;;;;;;4.65;1.10;;;;;;;;;;5053789;28;20435;-49
2021/10/30 06:47:31;;;;;;;2.33;0.80;;;;;;;;;;5071229;28;20082;-53
2021/10/30 06:49:59;;;;;;;2.13;1.10;;;;;;;;;;5072040;28;20085;-54
2021/10/30 06:52:38;;;;;;;3.08;0.70;;;;;;;;;;5071533;28;20029;-51
2021/10/30 06:55:05;;;;;;;4.57;1.00;;;;;;;;;;5071679;28;20028;-50
2021/10/30 06:57:32;;;;;;;2.22;0.95;;;;;;;;;;5071650;28;20031;-50
2021/10/30 07:00:00;;;;;;;1.50;1.08;;;;;;;;;;5071188;28;20025;-52
2021/10/30 07:02:28;;;;;;;2.53;0.82;;;;;;;;;;5071705;28;20036;-50
2021/10/30 07:04:57;;;;;;;2.33;0.95;;;;;;;;;;5070824;28;20016;-52
2021/10/30 07:07:24;;;;;;;3.25;1.00;;;;;;;;;;5071341;28;20028;-54
2021/10/30 07:09:54;;;;;;;2.22;0.80;;;;;;;;;;5071258;28;20042;-52
2021/10/30 07:12:21;;;;;;;1.60;0.90;;;;;;;;;;5054944;28;20044;-52
2021/10/30 07:14:49;;;;;;;1.73;0.82;;;;;;;;;;5071066;28;20017;-56
2021/10/30 07:17:16;;;;;;;10.00;1.67;;;;;;;;;;5071223;28;20031;-50
2021/10/30 07:19:43;;;;;;;6.20;1.80;;;;;;;;;;5070964;28;20408;-49
2021/10/30 07:22:10;;;;;;;7.22;1.65;;;;;;;;;;5071561;28;20510;-56
2021/10/30 07:24:37;;;;;;;5.32;1.60;;;;;;;;;;5052835;28;20103;-51
2021/10/30 07:27:04;;;;;;;8.57;1.52;;;;;;;;;;5071259;28;20028;-53
2021/10/30 07:29:31;;;;;;;7.60;1.30;;;;;;;;;;5073814;28;20016;-52
2021/10/30 07:31:58;;;;;;;5.68;2.00;;;;;;;;;;5075485;28;20025;-54
2021/10/30 07:34:25;;;;;;;7.03;1.98;;;;;;;;;;5075192;28;20028;-51
2021/10/30 07:36:52;;;;;;;7.18;1.55;;;;;;;;;;5074926;28;20056;-53
2021/10/30 07:39:19;;;;;;;7.45;1.85;;;;;;;;;;5075068;28;20021;-51
2021/10/30 07:41:47;;;;;;;2.63;1.30;;;;;;;;;;5056824;28;20153;-50
2021/10/30 07:44:14;;;;;;;4.30;1.38;;;;;;;;;;5057349;28;20527;-53
2021/10/30 07:46:41;;;;;;;2.78;1.05;;;;;;;;;;5074651;28;20112;-51
2021/10/30 07:49:08;;;;;;;3.67;1.40;;;;;;;;;;5075025;28;20376;-48
2021/10/30 07:51:35;;;;;;;1.38;1.10;;;;;;;;;;5074700;28;20476;-55
2021/10/30 07:54:02;;;;;;;4.53;1.35;;;;;;;;;;5074936;28;20375;-58
2021/10/30 07:56:29;;;;;;;7.15;1.27;;;;;;;;;;5074476;28;20028;-55
2021/10/30 07:58:56;;;;;;;1.90;1.15;;;;;;;;;;5074856;28;20062;-50
2021/10/30 08:01:23;;;;;;;2.55;1.20;;;;;;;;;;5074555;28;20028;-56
2021/10/30 08:03:50;;;;;;;1.92;1.17;;;;;;;;;;5074738;28;20016;-50
2021/10/30 08:06:17;;;;;;;4.80;0.95;;;;;;;;;;5074399;28;20020;-54
2021/10/30 08:08:44;;;;;;;5.32;1.40;;;;;;;;;;5074414;28;20511;-49
2021/10/30 08:11:11;;;;;;;3.25;1.10;;;;;;;;;;5074113;28;20112;-53
2021/10/30 08:13:38;;;;;;;3.20;1.17;;;;;;;;;;5074811;28;20077;-51
2021/10/30 08:16:05;;;;;;;6.00;1.45;;;;;;;;;;5073671;28;20139;-52
2021/10/30 08:18:32;;;;;;;1.80;0.95;;;;;;;;;;5074070;28;20041;-56
2021/10/30 08:20:59;;;;;;;3.35;1.25;;;;;;;;;;5074666;28;20376;-50
2021/10/30 08:23:26;;;;;;;3.58;1.20;;;;;;;;;;5055818;28;20419;-55
2021/10/30 08:25:53;;;;;;;2.03;1.00;;;;;;;;;;5074199;28;20103;-48
2021/10/30 08:28:21;;;;;;;2.85;1.30;;;;;;;;;;5073954;28;20034;-49
2021/10/30 08:30:48;;;;;;;2.38;1.25;;;;;;;;;;5056899;28;20552;-52
2021/10/30 08:33:15;;;;;;;8.55;1.35;;;;;;;;;;5073432;28;20731;-54
2021/10/30 08:35:42;;;;;;;7.38;1.88;;;;;;;;;;5083603;28;20020;-50
2021/10/30 08:38:10;;;;;;;2.28;1.20;;;;;;;;;;5093836;28;20020;-50
2021/10/30 08:40:41;;;;;;;3.90;1.60;;;;;;;;;;5075544;28;20055;-54
2021/10/30 08:43:17;;;;;;;4.13;1.20;;;;;;;;;;5093760;28;20024;-49
2021/10/30 08:45:44;;;;;;;5.65;1.95;;;;;;;;;;5094017;28;20020;-49
2021/10/30 08:48:11;;;;;;;7.32;1.52;;;;;;;;;;5093444;28;20488;-51
2021/10/30 08:50:38;;;;;;;4.43;1.20;;;;;;;;;;5094287;28;20016;-53
2021/10/30 08:53:05;;;;;;;3.63;1.20;;;;;;;;;;5093787;28;20020;-51
2021/10/30 08:55:32;;;;;;;4.18;1.20;;;;;;;;;;5093865;28;20024;-49
2021/10/30 08:58:03;;;;;;;4.97;0.98;;;;;;;;;;5093376;28;20032;-56
2021/10/30 09:00:30;;;;;;;1.85;1.10;;;;;;;;;;5094153;28;20494;-54
2021/10/30 09:03:02;;;;;;;3.85;0.98;;;;;;;;;;5093587;28;20425;-49
2021/10/30 09:05:31;;;;;;;2.40;1.05;;;;;;;;;;5093632;28;20388;-48
2021/10/30 09:07:59;;;;;;;2.80;1.10;;;;;;;;;;5093857;28;20161;-49
2021/10/30 09:10:26;;;;;;;3.25;1.13;;;;;;;;;;5093753;28;20076;-56
2021/10/30 09:12:55;;;;;;;5.10;1.30;;;;;;;;;;5093495;28;20373;-48
2021/10/30 09:15:36;;;;;;;5.35;1.10;;;;;;;;;;5092903;28;20127;-54
2021/10/30 09:18:04;;;;;;;5.65;1.40;;;;;;;;;;5093441;28;20062;-54
2021/10/30 09:20:38;;;;;;;4.88;1.10;;;;;;;;;;5093238;28;20051;-55
2021/10/30 09:23:13;;;;;;;2.55;0.95;;;;;;;;;;5093480;28;20039;-50
2021/10/30 09:26:02;;;;;;;7.82;1.38;;;;;;;;;;5092760;28;20020;-50
2021/10/30 09:28:33;;;;;;;5.65;1.60;;;;;;;;;;5075085;28;20027;-52
2021/10/30 09:31:04;;;;;;;5.00;1.58;;;;;;;;;;5093089;28;20094;-54
2021/10/30 09:33:32;;;;;;;7.95;1.42;;;;;;;;;;5093596;28;20073;-56
2021/10/30 09:36:08;;;;;;;10.38;1.85;;;;;;;;;;5092482;28;20068;-49
2021/10/30 09:38:43;;;;;;;12.00;2.25;;;;;;;;;;5093051;28;20020;-56
2021/10/30 09:41:22;;;;;;;4.82;1.65;;;;;;;;;;5092508;28;20073;-51
2021/10/30 09:43:55;;;;;;;4.47;1.20;;;;;;;;;;5093255;28;20071;-52
2021/10/30 09:46:22;;;;;;;10.93;1.58;;;;;;;;;;5092743;28;20051;-49
2021/10/30 09:48:50;;;;;;;9.63;1.40;;;;;;;;;;5092781;28;20076;-52
2021/10/30 09:51:52;;;;;;;8.35;1.30;;;;;;;;;;5091902;28;20024;-49
2021/10/30 09:54:48;;;;;;;11.60;1.20;;;;;;;;;;4991323;28;20190;-52
2021/10/30 09:57:16;;;;;;;6.53;1.58;;;;;;;;;;5090826;28;20040;-51
2021/10/30 09:59:45;;;;;;;7.55;1.70;;;;;;;;;;5092828;28;20024;-50
2021/10/30 10:02:13;;;;;;;7.35;1.40;;;;;;;;;;5092511;28;20036;-51
2021/10/30 10:04:44;;;;;;;8.32;1.52;;;;;;;;;;5092866;28;20016;-53
2021/10/30 10:07:11;;;;;;;12.55;1.92;;;;;;;;;;5091857;28;20024;-55
2021/10/30 10:09:39;;;;;;;8.77;1.95;;;;;;;;;;5092567;28;20016;-50
2021/10/30 10:12:06;;;;;;;7.50;1.58;;;;;;;;;;5092246;28;20036;-52
2021/10/30 10:14:36;;;;;;;6.07;1.40;;;;;;;;;;5074761;28;20020;-52
2021/10/30 10:17:03;;;;;;;9.07;1.77;;;;;;;;;;5091708;28;20024;-51
2021/10/30 10:19:30;;;;;;;12.52;1.65;;;;;;;;;;5092244;28;20040;-52
2021/10/30 10:21:57;;;;;;;7.78;1.75;;;;;;;;;;5092175;28;20056;-48
2021/10/30 10:24:29;;;;;;;9.48;1.60;;;;;;;;;;5092233;28;20028;-50
2021/10/30 10:26:57;;;;;;;7.40;1.65;;;;;;;;;;5091659;28;20149;-54
2021/10/30 10:29:43;;;;;;;8.48;1.38;;;;;;;;;;5092132;28;20103;-52
2021/10/30 10:32:18;;;;;;;6.15;1.50;;;;;;;;;;5092074;28;20020;-49
2021/10/30 10:34:46;;;;;;;5.00;1.52;;;;;;;;;;5092234;28;20031;-49
2021/10/30 10:37:22;;;;;;;8.32;1.67;;;;;;;;;;5091180;28;20020;-53
2021/10/30 10:40:00;;;;;;;14.88;2.10;;;;;;;;;;5092279;28;20024;-50
2021/10/30 10:42:36;;;;;;;6.55;1.50;;;;;;;;;;5091912;28;20040;-51
2021/10/30 10:45:07;;;;;;;8.05;1.52;;;;;;;;;;5074085;28;20363;-51
2021/10/30 10:47:43;;;;;;;7.63;1.80;;;;;;;;;;5056239;28;20044;-48
2021/10/30 10:50:14;;;;;;;4.53;1.35;;;;;;;;;;5092062;28;20476;-57
2021/10/30 10:53:16;;;;;;;11.65;1.65;;;;;;;;;;5091596;28;20028;-56
2021/10/30 10:55:45;;;;;;;16.05;1.85;;;;;;;;;;5091873;28;20384;-52
2021/10/30 10:58:14;;;;;;;8.93;1.85;;;;;;;;;;5091068;28;20062;-51
2021/10/30 11:01:01;;;;;;;7.75;1.73;;;;;;;;;;5091972;28;20639;-50
2021/10/30 11:03:28;;;;;;;14.70;1.90;;;;;;;;;;5090858;28;20399;-49
2021/10/30 11:05:59;;;;;;;6.78;1.75;;;;;;;;;;5091941;28;20032;-49
2021/10/30 11:08:31;;;;;;;11.70;2.25;;;;;;;;;;5090533;28;20032;-47
2021/10/30 11:11:13;;;;;;;19.03;3.57;;;;;;;;;;5091947;28;20026;-50
2021/10/30 11:13:58;;;;;;;13.47;2.87;;;;;;;;;;5091613;28;20024;-54
2021/10/30 11:16:45;;;;;;;11.25;2.95;;;;;;;;;;5091813;28;20111;-54
2021/10/30 11:19:33;;;;;;;11.82;2.85;;;;;;;;;;5090525;28;20115;-51
2021/10/30 11:22:11;;;;;;;16.45;3.45;;;;;;;;;;5091462;28;20377;-53
2021/10/30 11:24:48;;;;;;;23.45;3.70;;;;;;;;;;5091453;28;20024;-50
2021/10/30 11:27:16;;;;;;;14.18;2.92;;;;;;;;;;5091149;28;20016;-49
2021/10/30 11:29:50;;;;;;;11.88;2.90;;;;;;;;;;5091125;28;20024;-54
2021/10/30 11:32:17;;;;;;;12.63;3.10;;;;;;;;;;5091553;28;20028;-50
2021/10/30 11:34:50;;;;;;;17.98;3.00;;;;;;;;;;5091141;28;20039;-57
2021/10/30 11:37:17;;;;;;;10.45;2.80;;;;;;;;;;5091220;28;20024;-51
2021/10/30 11:39:46;;;;;;;11.98;3.38;;;;;;;;;;5090911;28;20024;-54
2021/10/30 11:42:14;;;;;;;15.70;3.03;;;;;;;;;;5091280;28;20468;-50
2021/10/30 11:44:48;;;;;;;12.43;3.20;;;;;;;;;;5091153;28;20029;-52
2021/10/30 11:47:17;;;;;;;17.15;3.33;;;;;;;;;;5091208;28;20058;-54
2021/10/30 11:49:44;;;;;;;30.92;3.50;;;;;;;;;;5090814;28;20480;-52
2021/10/30 11:52:11;;;;;;;20.52;3.22;;;;;;;;;;5091261;28;20027;-51
2021/10/30 11:54:38;;;;;;;9.90;2.58;;;;;;;;;;5091001;28;20476;-51
2021/10/30 11:57:09;;;;;;;14.60;3.15;;;;;;;;;;5091309;28;20039;-52
2021/10/30 11:59:39;;;;;;;15.38;2.78;;;;;;;;;;5091024;28;20024;-55
2021/10/30 12:02:12;;;;;;;13.13;3.20;;;;;;;;;;5091027;28;20040;-53
2021/10/30 12:04:39;;;;;;;13.88;2.67;;;;;;;;;;5091457;28;20467;-51
2021/10/30 12:07:07;;;;;;;10.75;2.22;;;;;;;;;;5090055;28;20024;-51
2021/10/30 12:09:37;;;;;;;7.78;2.85;;;;;;;;;;5090464;28;20063;-55
2021/10/30 12:12:12;;;;;;;11.27;2.70;;;;;;;;;;5090873;28;20024;-56
2021/10/30 12:14:40;;;;;;;9.50;3.05;;;;;;;;;;5091176;28;20468;-55
2021/10/30 12:17:11;;;;;;;11.68;2.58;;;;;;;;;;5078507;28;20033;-49
2021/10/30 12:19:39;;;;;;;9.32;2.30;;;;;;;;;;5073332;28;20048;-55
2021/10/30 12:22:08;;;;;;;13.80;2.67;;;;;;;;;;5073035;28;20032;-50
2021/10/30 12:24:35;;;;;;;13.90;2.80;;;;;;;;;;5091312;28;20016;-54
2021/10/30 12:27:04;;;;;;;11.80;2.90;;;;;;;;;;5094021;28;20027;-53
2021/10/30 12:29:32;;;;;;;12.40;2.55;;;;;;;;;;5091105;28;20487;-51
2021/10/30 12:32:00;;;;;;;9.77;2.60;;;;;;;;;;5073171;28;20469;-56
2021/10/30 12:34:30;;;;;;;9.38;2.20;;;;;;;;;;5073958;28;20675;-53
2021/10/30 12:36:58;;;;;;;12.45;2.45;;;;;;;;;;5072949;28;20043;-49
2021/10/30 12:39:27;;;;;;;10.25;2.55;;;;;;;;;;5072271;28;20460;-49
2021/10/30 12:42:02;;;;;;;10.75;2.45;;;;;;;;;;5072273;28;20028;-50
2021/10/30 12:44:33;;;;;;;20.17;2.90;;;;;;;;;;5073409;28;20020;-51
2021/10/30 12:47:02;;;;;;;11.77;2.70;;;;;;;;;;5073773;28;20028;-50
2021/10/30 12:49:31;;;;;;;10.35;2.28;;;;;;;;;;5073526;28;20033;-53
2021/10/30 12:51:59;;;;;;;6.97;2.13;;;;;;;;;;5073396;28;20028;-52
2021/10/30 12:54:26;;;;;;;12.88;2.78;;;;;;;;;;5072181;28;20020;-52
2021/10/30 12:56:54;;;;;;;11.77;2.45;;;;;;;;;;5077552;28;20013;-56
2021/10/30 12:59:24;;;;;;;15.77;2.60;;;;;;;;;;5086074;28;20054;-47
2021/10/30 13:01:53;;;;;;;17.55;3.08;;;;;;;;;;5092919;28;20039;-47
2021/10/30 13:04:30;;;;;;;25.92;3.67;;;;;;;;;;5093020;28;20059;-51
2021/10/30 13:07:05;;;;;;;29.38;4.65;;;;;;;;;;5091465;28;20383;-48
2021/10/30 13:09:33;;;;;;;27.15;4.13;;;;;;;;;;5090646;28;20035;-47
2021/10/30 13:12:00;;;;;;;28.70;4.22;;;;;;;;;;5072025;28;20016;-52
2021/10/30 13:14:28;;;;;;;21.17;3.50;;;;;;;;;;5070908;28;20025;-49
2021/10/30 13:16:54;;;;;;;10.88;2.63;;;;;;;;;;5080469;28;20372;-52
2021/10/30 13:19:22;;;;;;;15.52;2.67;;;;;;;;;;5089267;28;20060;-49
2021/10/30 13:21:53;;;;;;;10.98;2.33;;;;;;;;;;5090954;28;20032;-48
2021/10/30 13:24:20;;;;;;;14.32;2.47;;;;;;;;;;5092434;28;20525;-46
2021/10/30 13:26:47;;;;;;;12.77;1.92;;;;;;;;;;5080559;28;20035;-46
2021/10/30 13:29:14;;;;;;;9.43;2.50;;;;;;;;;;5069979;28;20032;-44
2021/10/30 13:31:42;;;;;;;10.52;2.55;;;;;;;;;;5069592;28;20444;-47
2021/10/30 13:34:09;;;;;;;20.35;3.30;;;;;;;;;;5088863;28;20043;-52
2021/10/30 13:36:36;;;;;;;15.25;3.70;;;;;;;;;;5091897;28;20019;-59
2021/10/30 13:39:04;;;;;;;18.02;3.08;;;;;;;;;;5090985;28;20115;-58
2021/10/30 13:41:32;;;;;;;12.80;3.95;;;;;;;;;;5090526;28;20028;-57
2021/10/30 13:44:02;;;;;;;15.85;2.95;;;;;;;;;;5089460;28;20024;-59
2021/10/30 13:46:30;;;;;;;8.60;2.58;;;;;;;;;;5091169;28;20093;-54
2021/10/30 13:48:57;;;;;;;9.65;2.70;;;;;;;;;;5091125;28;20028;-61
2021/10/30 13:51:25;;;;;;;12.57;2.45;;;;;;;;;;5090488;28;20400;-59
2021/10/30 13:53:52;;;;;;;8.88;2.40;;;;;;;;;;5092038;28;20074;-59
2021/10/30 13:56:19;;;;;;;10.20;2.13;;;;;;;;;;5076439;28;20120;-60
2021/10/30 13:58:47;;;;;;;11.48;2.80;;;;;;;;;;5071636;28;20040;-54
2021/10/30 14:01:14;;;;;;;13.05;2.50;;;;;;;;;;5070437;28;20021;-56
2021/10/30 14:03:41;;;;;;;16.67;2.85;;;;;;;;;;5071144;28;20032;-52
2021/10/30 14:06:09;;;;;;;20.92;2.13;;;;;;;;;;5070501;28;20028;-53
2021/10/30 14:08:36;;;;;;;22.38;2.80;;;;;;;;;;5070130;28;20029;-56
2021/10/30 14:11:03;;;;;;;15.35;3.38;;;;;;;;;;5070391;28;20021;-52
2021/10/30 14:13:31;;;;;;;21.83;2.65;;;;;;;;;;5069955;28;20534;-62
2021/10/30 14:15:58;;;;;;;23.30;3.45;;;;;;;;;;5070425;28;20025;-63
2021/10/30 14:18:29;;;;;;;24.25;3.40;;;;;;;;;;5051043;28;20052;-66
2021/10/30 14:20:57;;;;;;;22.40;3.40;;;;;;;;;;5069850;28;20025;-61
2021/10/30 14:23:25;;;;;;;33.13;3.33;;;;;;;;;;5069429;28;20202;-66
2021/10/30 14:25:53;;;;;;;21.75;3.72;;;;;;;;;;5070997;28;20038;-60
2021/10/30 14:28:20;;;;;;;27.00;4.05;;;;;;;;;;5069946;28;20024;-61
2021/10/30 14:30:47;;;;;;;23.90;3.33;;;;;;;;;;5068638;28;20027;-62
2021/10/30 14:33:15;;;;;;;24.85;3.30;;;;;;;;;;5069004;28;20074;-62
2021/10/30 14:35:42;;;;;;;23.55;3.88;;;;;;;;;;5069354;28;20029;-62
2021/10/30 14:38:09;;;;;;;30.17;3.53;;;;;;;;;;5069303;28;20021;-50
2021/10/30 14:40:37;;;;;;;30.30;3.47;;;;;;;;;;5069863;28;20020;-49
2021/10/30 14:43:04;;;;;;;28.98;4.18;;;;;;;;;;5067432;28;20043;-60